Time;durP1;ratioP1;P1;durP2;ratioP2;P2;SDS_P1;SDS_P2;PMS_P1;PMS_P2;Temp;Humidity;BMP_temperature;BMP_pressure;BME280_temperature;BME280_humidity;BME280_pressure;Samples;Min_cycle;Max_cycle;Signal;HPM_P1;HPM_P2
2022/04/03 00:00:14;;;;;;;0.20;0.20;;;3.50;99.90;;;3.46;nan;100925.16;4972029;28;20231;-66
2022/04/03 00:02:41;;;;;;;0.20;0.20;;;3.40;99.90;;;3.53;nan;100933.50;4953190;28;20201;-65
2022/04/03 00:05:16;;;;;;;0.20;0.20;;;3.50;99.90;;;3.38;nan;100928.91;4951346;28;20200;-66
2022/04/03 00:07:43;;;;;;;0.20;0.20;;;3.40;99.90;;;3.36;nan;100928.13;4951396;28;20223;-66
2022/04/03 00:10:10;;;;;;;0.20;0.20;;;3.40;99.90;;;3.39;nan;100925.44;4954896;28;20676;-67
2022/04/03 00:12:37;;;;;;;0.20;0.20;;;3.40;99.90;;;3.29;nan;100935.25;4956181;28;20219;-66
2022/04/03 00:15:05;;;;;;;0.20;0.20;;;3.30;99.90;;;3.41;nan;100933.97;4955850;28;20212;-65
2022/04/03 00:17:32;;;;;;;1.20;1.20;;;3.30;99.90;;;3.27;nan;100931.91;4957506;28;20236;-66
2022/04/03 00:19:59;;;;;;;0.20;0.20;;;3.30;99.90;;;3.33;nan;100928.25;4957479;28;20228;-66
2022/04/03 00:22:28;;;;;;;0.20;0.20;;;3.30;99.90;;;3.33;nan;100931.66;4952877;29;20213;-66
2022/04/03 00:25:11;;;;;;;0.20;0.20;;;3.30;99.90;;;3.36;nan;100929.00;4938476;28;20208;-68
2022/04/03 00:27:39;;;;;;;0.20;0.20;;;3.30;99.90;;;3.35;nan;100934.19;4939576;28;20235;-68
2022/04/03 00:30:08;;;;;;;0.20;0.20;;;3.30;99.90;;;3.27;nan;100939.63;4955938;28;20230;-67
2022/04/03 00:32:35;;;;;;;0.20;0.20;;;3.20;99.90;;;3.17;nan;100935.72;4954478;28;20200;-67
2022/04/03 00:35:04;;;;;;;0.20;0.20;;;3.10;99.90;;;3.19;nan;100944.25;4972201;28;20219;-67
2022/04/03 00:37:32;;;;;;;0.93;0.93;;;3.20;99.90;;;3.22;nan;100940.69;4971757;28;20437;-68
2022/04/03 00:39:59;;;;;;;0.20;0.20;;;3.20;99.90;;;3.22;nan;100944.13;4972679;28;20227;-67
2022/04/03 00:42:27;;;;;;;0.20;0.20;;;3.20;99.90;;;3.15;nan;100937.53;4971445;28;20211;-66
2022/04/03 00:44:54;;;;;;;0.20;0.20;;;3.10;99.90;;;3.17;nan;100942.63;4955845;28;20818;-67
2022/04/03 00:47:21;;;;;;;0.20;0.20;;;3.20;99.90;;;3.08;nan;100941.22;4954548;28;20658;-67
2022/04/03 00:49:48;;;;;;;0.20;0.20;;;3.10;99.90;;;3.17;nan;100946.84;4955189;28;20642;-69
2022/04/03 00:52:15;;;;;;;0.20;0.20;;;3.20;99.90;;;3.23;nan;100943.22;4966675;28;20208;-66
2022/04/03 00:54:44;;;;;;;0.20;0.20;;;3.20;99.90;;;3.12;nan;100942.78;4954381;28;20212;-67
2022/04/03 00:57:12;;;;;;;0.20;0.20;;;3.10;99.90;;;3.18;nan;100950.28;4973311;28;20309;-67
2022/04/03 00:59:42;;;;;;;0.20;0.20;;;3.20;99.90;;;3.31;nan;100953.25;4956226;28;20712;-67
2022/04/03 01:02:09;;;;;;;0.20;0.20;;;3.30;99.90;;;3.22;nan;100953.59;4972301;28;20204;-67
2022/04/03 01:04:40;;;;;;;0.20;0.20;;;3.20;99.90;;;3.12;nan;100951.38;4972407;28;20196;-67
2022/04/03 01:07:08;;;;;;;0.20;0.20;;;3.20;99.90;;;3.21;nan;100952.75;4971676;28;20227;-66
2022/04/03 01:09:36;;;;;;;0.20;0.20;;;3.20;99.90;;;3.27;nan;100951.69;4954845;28;20216;-66
2022/04/03 01:12:05;;;;;;;0.20;0.20;;;3.30;99.90;;;3.17;nan;100950.34;4955294;28;20242;-68
2022/04/03 01:14:35;;;;;;;0.20;0.20;;;3.20;99.90;;;3.24;nan;100955.22;4955396;28;20212;-67
2022/04/03 01:17:04;;;;;;;0.20;0.20;;;3.20;99.90;;;3.24;nan;100952.63;4939265;28;20243;-67
2022/04/03 01:19:31;;;;;;;0.20;0.20;;;3.30;99.90;;;3.15;nan;100953.00;4972741;28;20230;-67
2022/04/03 01:21:59;;;;;;;0.20;0.20;;;3.20;99.90;;;3.17;nan;100955.50;4954076;28;20204;-68
2022/04/03 01:24:26;;;;;;;0.20;0.20;;;3.20;99.90;;;3.19;nan;100957.13;4954716;28;20212;-67
2022/04/03 01:26:54;;;;;;;0.20;0.20;;;3.20;99.90;;;3.18;nan;100960.59;4953694;28;20689;-67
2022/04/03 01:29:21;;;;;;;0.20;0.20;;;3.10;99.90;;;3.15;nan;100947.84;4972004;28;20204;-67
2022/04/03 01:31:48;;;;;;;0.20;0.20;;;3.20;99.90;;;3.22;nan;100954.44;4954421;28;20208;-68
2022/04/03 01:34:16;;;;;;;0.20;0.20;;;3.20;99.90;;;3.11;nan;100959.13;4954100;28;20644;-67
2022/04/03 01:36:44;;;;;;;0.20;0.20;;;3.10;99.90;;;3.13;nan;100953.03;4953694;28;20220;-67
2022/04/03 01:39:12;;;;;;;0.20;0.20;;;3.10;99.90;;;3.11;nan;100957.41;4939487;28;20258;-67
2022/04/03 01:41:41;;;;;;;0.22;0.22;;;3.10;99.90;;;3.17;nan;100950.34;4953666;28;20216;-67
2022/04/03 01:44:10;;;;;;;0.20;0.20;;;3.20;99.90;;;3.13;nan;100955.59;4971550;28;20214;-67
2022/04/03 01:46:38;;;;;;;0.20;0.20;;;3.20;99.90;;;3.10;nan;100948.00;4934045;28;20658;-67
2022/04/03 01:49:07;;;;;;;0.20;0.20;;;3.10;99.90;;;3.08;nan;100944.63;4951275;28;20216;-67
2022/04/03 01:51:35;;;;;;;1.20;1.20;;;3.10;99.90;;;3.20;nan;100950.22;4971152;28;20215;-68
2022/04/03 01:54:02;;;;;;;0.20;0.20;;;3.20;99.90;;;3.15;nan;100947.84;4974830;28;20207;-67
2022/04/03 01:56:29;;;;;;;0.20;0.20;;;3.20;99.90;;;3.17;nan;100946.03;4957660;28;20266;-67
2022/04/03 01:58:56;;;;;;;0.20;0.20;;;3.20;99.90;;;3.21;nan;100951.91;4943046;28;20711;-67
2022/04/03 02:01:24;;;;;;;0.20;0.20;;;3.20;99.90;;;3.21;nan;100946.75;4957233;28;20228;-67
2022/04/03 02:03:51;;;;;;;0.20;0.20;;;3.20;99.90;;;3.17;nan;100945.19;4958916;28;20196;-66
2022/04/03 02:06:18;;;;;;;0.20;0.20;;;3.20;99.90;;;3.17;nan;100950.34;4974747;28;20231;-66
2022/04/03 02:08:45;;;;;;;0.20;0.20;;;3.20;99.90;;;3.21;nan;100954.50;4975550;28;20600;-66
2022/04/03 02:11:14;;;;;;;0.20;0.20;;;3.20;99.90;;;3.24;nan;100942.31;4975723;28;20292;-66
2022/04/03 02:13:41;;;;;;;0.20;0.20;;;3.30;99.90;;;3.23;nan;100950.13;4942270;28;20219;-66
2022/04/03 02:16:09;;;;;;;0.20;0.20;;;3.20;99.90;;;3.25;nan;100958.63;4973805;28;20200;-66
2022/04/03 02:18:37;;;;;;;0.20;0.20;;;3.20;99.90;;;3.11;nan;100952.25;4957808;28;20664;-66
2022/04/03 02:21:04;;;;;;;0.20;0.20;;;3.20;99.90;;;3.09;nan;100956.63;4957181;28;20227;-66
2022/04/03 02:23:31;;;;;;;0.20;0.20;;;3.20;99.90;;;3.21;nan;100954.50;4958985;28;20562;-65
2022/04/03 02:25:58;;;;;;;0.20;0.20;;;3.20;99.90;;;3.13;nan;100960.75;4973891;28;20200;-66
2022/04/03 02:28:25;;;;;;;0.20;0.20;;;3.20;99.90;;;3.22;nan;100962.16;4958220;28;20224;-66
2022/04/03 02:30:52;;;;;;;0.20;0.20;;;3.20;99.90;;;3.19;nan;100957.13;4958112;28;20220;-66
2022/04/03 02:33:19;;;;;;;0.20;0.20;;;3.20;99.90;;;3.09;nan;100956.63;4958165;28;20207;-66
2022/04/03 02:35:46;;;;;;;0.20;0.20;;;3.20;99.90;;;3.17;nan;100958.94;4957994;28;20204;-66
2022/04/03 02:38:15;;;;;;;0.20;0.20;;;3.20;99.90;;;3.10;nan;100963.47;4957469;28;20236;-65
2022/04/03 02:40:45;;;;;;;0.20;0.20;;;3.20;99.90;;;3.23;nan;100963.00;4972931;28;20231;-65
2022/04/03 02:43:13;;;;;;;0.60;0.60;;;3.20;99.90;;;3.15;nan;100958.97;4954619;29;20238;-66
2022/04/03 02:45:40;;;;;;;0.20;0.20;;;3.20;99.90;;;3.14;nan;100962.47;4955145;29;20271;-65
2022/04/03 02:48:08;;;;;;;0.20;0.20;;;3.20;99.90;;;3.19;nan;100964.88;4945174;28;20232;-65
2022/04/03 02:50:35;;;;;;;0.20;0.20;;;3.20;99.90;;;3.17;nan;100970.06;4939188;29;20213;-66
2022/04/03 02:53:03;;;;;;;0.20;0.20;;;3.20;99.90;;;3.17;nan;100967.47;4944589;28;20204;-67
2022/04/03 02:55:30;;;;;;;0.20;0.20;;;3.20;99.90;;;3.09;nan;100973.81;4927528;29;20692;-66
2022/04/03 02:57:57;;;;;;;0.20;0.20;;;3.10;99.90;;;3.11;nan;100972.88;4954567;28;20240;-66
2022/04/03 03:00:24;;;;;;;0.20;0.20;;;3.10;99.90;;;3.04;nan;100971.44;4952938;29;20225;-66
2022/04/03 03:02:52;;;;;;;0.22;0.22;;;3.10;99.90;;;2.93;nan;100967.53;4953237;28;20205;-67
2022/04/03 03:05:19;;;;;;;0.20;0.20;;;3.00;99.90;;;3.01;nan;100974.09;4962222;28;20203;-66
2022/04/03 03:07:46;;;;;;;0.20;0.20;;;3.00;99.90;;;3.11;nan;100970.28;4975164;28;20256;-66
2022/04/03 03:10:17;;;;;;;0.20;0.20;;;3.10;99.90;;;3.10;nan;100976.34;4973423;28;20212;-66
2022/04/03 03:12:47;;;;;;;0.20;0.20;;;3.10;99.90;;;3.17;nan;100978.72;4957208;28;20224;-66
2022/04/03 03:15:14;;;;;;;0.20;0.20;;;3.20;99.90;;;3.14;nan;100982.25;4972693;28;20200;-66
2022/04/03 03:17:42;;;;;;;0.20;0.20;;;3.10;99.90;;;3.10;nan;100981.50;4955972;28;20556;-66
2022/04/03 03:20:10;;;;;;;0.20;0.20;;;3.10;99.90;;;3.08;nan;100977.31;4955635;28;20235;-66
2022/04/03 03:22:38;;;;;;;0.20;0.20;;;3.10;99.90;;;3.10;nan;100981.50;4955551;28;20204;-66
2022/04/03 03:25:07;;;;;;;0.20;0.20;;;3.10;99.90;;;3.17;nan;100980.38;4956382;28;20204;-66
2022/04/03 03:27:35;;;;;;;0.20;0.20;;;3.20;99.90;;;3.14;nan;100983.09;4940423;28;20716;-66
2022/04/03 03:30:03;;;;;;;0.20;0.20;;;3.10;99.90;;;3.06;nan;100979.09;4972140;28;20704;-66
2022/04/03 03:32:30;;;;;;;0.20;0.20;;;3.10;99.90;;;2.96;nan;100978.56;4956408;28;20219;-65
2022/04/03 03:34:57;;;;;;;0.20;0.20;;;3.00;99.90;;;3.05;nan;100991.13;4972920;28;20212;-66
2022/04/03 03:37:24;;;;;;;0.20;0.20;;;3.00;99.90;;;2.95;nan;100986.38;4956580;28;20220;-66
2022/04/03 03:39:53;;;;;;;0.20;0.20;;;2.90;99.90;;;2.92;nan;100984.72;4971114;28;20316;-66
2022/04/03 03:42:20;;;;;;;0.20;0.20;;;3.00;99.90;;;2.93;nan;100989.00;4973037;28;20208;-66
2022/04/03 03:44:47;;;;;;;0.20;0.20;;;3.00;99.90;;;2.95;nan;100992.38;4973383;28;20231;-66
2022/04/03 03:47:14;;;;;;;0.20;0.20;;;3.00;99.90;;;2.98;nan;100991.44;4936997;28;20228;-66
2022/04/03 03:49:41;;;;;;;0.20;0.20;;;3.00;99.90;;;2.97;nan;100990.56;4972362;28;20306;-67
2022/04/03 03:52:09;;;;;;;0.20;0.20;;;3.00;99.90;;;2.92;nan;100995.03;4972400;28;20200;-66
2022/04/03 03:54:36;;;;;;;0.20;0.20;;;2.90;99.90;;;3.01;nan;100996.44;4956830;28;20211;-66
2022/04/03 03:57:04;;;;;;;0.20;0.20;;;3.00;99.90;;;2.93;nan;100994.16;4972982;28;20657;-66
2022/04/03 03:59:31;;;;;;;0.20;0.20;;;2.90;99.90;;;2.97;nan;100998.31;4973672;28;20208;-66
2022/04/03 04:01:58;;;;;;;0.20;0.20;;;3.00;99.90;;;2.96;nan;100996.59;4973363;28;20224;-66
2022/04/03 04:04:25;;;;;;;0.20;0.20;;;3.00;99.90;;;2.94;nan;101000.13;4952409;28;20211;-67
2022/04/03 04:06:52;;;;;;;0.20;0.20;;;3.00;99.90;;;2.94;nan;101003.56;4972582;28;20224;-67
2022/04/03 04:09:19;;;;;;;0.20;0.20;;;3.00;99.90;;;2.95;nan;101001.81;4955218;28;20669;-67
2022/04/03 04:11:46;;;;;;;0.20;0.20;;;3.00;99.90;;;2.81;nan;101002.28;4938640;28;20208;-68
2022/04/03 04:14:14;;;;;;;0.20;0.20;;;2.80;99.90;;;2.88;nan;101011.50;4971026;28;20212;-67
2022/04/03 04:16:42;;;;;;;0.22;0.22;;;2.90;99.90;;;2.80;nan;101013.50;4931938;28;20253;-67
2022/04/03 04:19:09;;;;;;;0.20;0.20;;;2.90;99.90;;;2.84;nan;101012.50;4952190;28;20207;-67
2022/04/03 04:21:36;;;;;;;0.20;0.20;;;2.90;99.90;;;2.78;nan;101014.44;4973167;28;20358;-67
2022/04/03 04:24:04;;;;;;;0.20;0.20;;;2.90;99.90;;;2.83;nan;101018.53;4955546;28;20212;-67
2022/04/03 04:26:31;;;;;;;0.20;0.20;;;2.80;99.90;;;2.76;nan;101022.25;4956118;28;20208;-67
2022/04/03 04:28:58;;;;;;;0.20;0.20;;;2.80;99.90;;;2.67;nan;101025.13;4949857;29;20204;-67
2022/04/03 04:31:25;;;;;;;0.20;0.20;;;2.70;99.90;;;2.68;nan;101023.38;4953016;28;20211;-67
2022/04/03 04:33:51;;;;;;;0.20;0.20;;;2.70;99.90;;;2.79;nan;101023.88;4911510;29;20224;-67
2022/04/03 04:36:19;;;;;;;0.30;0.30;;;2.70;99.90;;;2.64;nan;101027.78;4970123;28;20238;-68
2022/04/03 04:38:47;;;;;;;0.20;0.20;;;2.60;99.90;;;2.60;nan;101026.19;4971847;28;20219;-67
2022/04/03 04:41:14;;;;;;;0.20;0.20;;;2.60;99.90;;;2.59;nan;101032.25;4972188;28;20610;-67
2022/04/03 04:43:41;;;;;;;0.20;0.20;;;2.60;99.90;;;2.56;nan;101029.78;4971451;28;20196;-67
2022/04/03 04:46:08;;;;;;;0.20;0.20;;;2.60;99.90;;;2.48;nan;101023.19;4937491;28;20204;-67
2022/04/03 04:48:35;;;;;;;0.20;0.20;;;2.50;99.90;;;2.48;nan;101034.34;4951674;28;20224;-67
2022/04/03 04:51:03;;;;;;;0.20;0.20;;;2.50;99.90;;;2.42;nan;101037.13;4944186;28;20204;-67
2022/04/03 04:53:30;;;;;;;0.20;0.20;;;2.40;99.90;;;2.35;nan;101035.63;4952174;28;20207;-67
2022/04/03 04:55:57;;;;;;;0.20;0.20;;;2.40;99.90;;;2.25;nan;101042.81;4940128;28;20216;-67
2022/04/03 04:58:24;;;;;;;0.20;0.20;;;2.30;99.90;;;2.31;nan;101045.19;4973077;28;20228;-66
2022/04/03 05:00:52;;;;;;;0.20;0.20;;;2.30;99.90;;;2.31;nan;101037.47;4971981;28;20227;-67
2022/04/03 05:03:20;;;;;;;0.20;0.20;;;2.30;99.90;;;2.36;nan;101045.88;4951464;28;20213;-67
2022/04/03 05:05:47;;;;;;;0.20;0.20;;;2.30;99.90;;;2.27;nan;101041.03;4963259;28;20196;-67
2022/04/03 05:08:14;;;;;;;0.68;0.68;;;2.30;99.90;;;2.25;nan;101054.84;4953960;28;20227;-67
2022/04/03 05:10:42;;;;;;;0.20;0.20;;;2.30;99.90;;;2.31;nan;101049.50;4970966;28;20235;-67
2022/04/03 05:13:11;;;;;;;0.20;0.20;;;2.30;99.90;;;2.30;nan;101058.09;4970341;28;20208;-67
2022/04/03 05:15:38;;;;;;;0.20;0.20;;;2.20;99.90;;;2.17;nan;101056.81;4955692;28;20208;-67
2022/04/03 05:18:05;;;;;;;3.45;2.95;;;2.20;99.90;;;2.26;nan;101061.66;4971618;28;20235;-65
2022/04/03 05:20:33;;;;;;;0.20;0.20;;;2.30;99.90;;;2.26;nan;101065.06;4953465;28;20235;-66
2022/04/03 05:23:00;;;;;;;0.40;0.40;;;2.30;99.90;;;2.32;nan;101067.47;4954133;28;20204;-67
2022/04/03 05:25:27;;;;;;;0.20;0.20;;;2.40;99.90;;;2.42;nan;101072.31;4971720;28;20204;-67
2022/04/03 05:27:54;;;;;;;0.20;0.20;;;2.50;99.90;;;2.47;nan;101076.44;4971532;28;20228;-67
2022/04/03 05:30:21;;;;;;;0.20;0.20;;;2.60;99.90;;;2.59;nan;101068.34;4953352;28;20231;-66
2022/04/03 05:32:49;;;;;;;0.20;0.20;;;2.80;99.90;;;2.78;nan;101078.88;4969923;28;20207;-66
2022/04/03 05:35:16;;;;;;;0.20;0.20;;;2.90;99.90;;;2.80;nan;101083.09;4971122;28;20808;-66
2022/04/03 05:37:43;;;;;;;0.20;0.20;;;3.00;99.90;;;2.91;nan;101082.72;4972064;28;20231;-66
2022/04/03 05:40:12;;;;;;;0.20;0.20;;;3.10;99.90;;;3.12;nan;101080.28;4968984;28;20235;-66
2022/04/03 05:42:39;;;;;;;0.20;0.20;;;3.30;99.90;;;3.42;nan;101086.09;4938855;28;20742;-66
2022/04/03 05:45:09;;;;;;;0.20;0.20;;;3.80;99.90;;;3.54;nan;101085.66;4970567;28;20215;-66
2022/04/03 05:47:37;;;;;;;0.20;0.20;;;4.00;99.90;;;3.85;nan;101087.97;4954414;28;20227;-66
2022/04/03 05:50:09;;;;;;;0.20;0.20;;;4.40;99.90;;;4.23;nan;101097.69;4969727;28;20200;-66
2022/04/03 05:52:48;;;;;;;0.20;0.20;;;4.80;99.90;;;4.60;nan;101099.66;4953726;28;20680;-67
2022/04/03 05:55:18;;;;;;;0.20;0.20;;;5.20;99.90;;;4.87;nan;101100.31;4954420;28;20203;-67
2022/04/03 05:57:50;;;;;;;0.20;0.20;;;5.60;99.90;;;5.03;nan;101097.00;4953665;28;20231;-67
2022/04/03 06:00:20;;;;;;;0.20;0.20;;;6.00;99.90;;;5.32;nan;101108.72;4953439;28;20238;-66
2022/04/03 06:02:49;;;;;;;0.20;0.20;;;6.30;99.90;;;5.48;nan;101100.22;4955615;28;20211;-67
2022/04/03 06:05:25;;;;;;;0.20;0.20;;;6.30;99.90;;;5.89;nan;101107.94;4971648;28;20210;-67
2022/04/03 06:07:56;;;;;;;0.20;0.20;;;6.60;99.40;;;6.14;nan;101101.56;4955902;28;20290;-66
2022/04/03 06:10:26;;;;;;;0.20;0.20;;;7.10;98.00;;;6.34;nan;101112.75;4938136;28;20231;-67
2022/04/03 06:13:07;;;;;;;0.20;0.20;;;7.10;97.50;;;6.96;nan;101118.38;4971473;28;20204;-68
2022/04/03 06:15:40;;;;;;;0.40;0.40;;;7.60;96.30;;;7.13;nan;101118.38;4953323;28;20770;-66
2022/04/03 06:18:10;;;;;;;0.30;0.30;;;7.90;95.00;;;7.25;nan;101125.53;4952735;28;24523;-66
2022/04/03 06:20:38;;;;;;;0.30;0.30;;;8.20;93.20;;;7.45;nan;101117.56;4969667;28;20786;-66
2022/04/03 06:23:21;;;;;;;0.20;0.20;;;8.30;92.60;;;7.49;nan;101124.31;4970007;28;20418;-66
2022/04/03 06:25:56;;;;;;;0.20;0.20;;;8.70;90.90;;;8.05;nan;101120.50;4970917;28;20722;-66
2022/04/03 06:28:25;;;;;;;0.20;0.20;;;9.10;89.30;;;8.87;nan;101125.41;4937839;28;20662;-66
2022/04/03 06:30:56;;;;;;;0.20;0.20;;;9.90;85.50;;;9.83;nan;101133.59;4970432;28;21107;-66
2022/04/03 06:33:24;;;;;;;0.20;0.20;;;10.80;80.90;;;10.20;nan;101127.78;4970482;28;20635;-65
2022/04/03 06:35:51;;;;;;;0.20;0.20;;;11.70;74.10;;;10.31;nan;101135.78;4970598;28;21082;-66
2022/04/03 06:38:18;;;;;;;0.20;0.20;;;11.70;70.60;;;9.56;nan;101141.28;4971420;28;20662;-66
2022/04/03 06:40:57;;;;;;;0.30;0.30;;;11.40;69.00;;;9.10;nan;101142.31;4974387;28;20666;-66
2022/04/03 06:43:29;;;;;;;0.20;0.20;;;11.20;69.00;;;10.07;nan;101148.53;4958433;28;20639;-66
2022/04/03 06:45:57;;;;;;;0.20;0.20;;;11.50;69.60;;;10.80;nan;101144.78;4974715;28;21067;-66
2022/04/03 06:48:28;;;;;;;0.20;0.20;;;12.50;66.10;;;10.52;nan;101147.47;4974536;28;20667;-67
2022/04/03 06:50:55;;;;;;;0.20;0.20;;;12.40;63.50;;;10.21;nan;101145.13;4956606;28;20639;-66
2022/04/03 06:53:23;;;;;;;0.20;0.20;;;12.00;63.80;;;10.07;nan;101155.56;4955668;28;21071;-66
2022/04/03 06:55:50;;;;;;;0.20;0.20;;;11.90;63.50;;;10.44;nan;101154.94;4952306;28;20643;-66
2022/04/03 06:58:17;;;;;;;0.20;0.20;;;12.10;62.90;;;10.90;nan;101169.34;4937797;28;20666;-66
2022/04/03 07:00:48;;;;;;;0.20;0.20;;;12.70;61.60;;;11.42;nan;101161.53;4972915;28;21059;-65
2022/04/03 07:03:16;;;;;;;0.20;0.20;;;13.30;60.10;;;11.34;nan;101163.84;4956160;28;20641;-66
2022/04/03 07:05:43;;;;;;;0.27;0.20;;;13.40;58.80;;;11.99;nan;101167.22;4957616;28;20606;-66
2022/04/03 07:08:10;;;;;;;0.20;0.20;;;13.90;57.60;;;11.33;nan;101164.75;4974035;28;20691;-67
2022/04/03 07:10:36;;;;;;;0.30;0.20;;;13.60;57.30;;;12.59;nan;101167.28;4942309;28;20643;-68
2022/04/03 07:13:04;;;;;;;1.90;0.87;;;14.40;55.90;;;12.79;nan;101181.56;4973875;28;20651;-68
2022/04/03 07:15:31;;;;;;;0.30;0.27;;;14.80;54.00;;;12.70;nan;101177.00;4957861;28;20642;-67
2022/04/03 07:17:58;;;;;;;0.30;0.20;;;14.60;53.60;;;12.33;nan;101177.00;4973129;28;20677;-67
2022/04/03 07:20:25;;;;;;;0.30;0.20;;;14.10;54.20;;;12.24;nan;101175.06;4948306;28;20635;-66
2022/04/03 07:22:52;;;;;;;0.30;0.20;;;14.00;53.60;;;11.42;nan;101176.38;4955909;28;20638;-65
2022/04/03 07:25:21;;;;;;;0.77;0.67;;;13.30;54.50;;;12.24;nan;101174.19;4973436;28;20987;-66
2022/04/03 07:27:48;;;;;;;0.30;0.20;;;13.50;54.80;;;12.42;nan;101180.75;4973733;28;20650;-67
2022/04/03 07:30:15;;;;;;;0.30;0.20;;;13.60;55.90;;;12.64;nan;101182.69;4956890;28;20635;-67
2022/04/03 07:32:42;;;;;;;0.30;0.20;;;14.10;54.00;;;13.74;nan;101190.16;4956645;28;21001;-67
2022/04/03 07:35:11;;;;;;;0.30;0.30;;;14.70;53.20;;;14.36;nan;101190.56;4956367;28;20619;-66
2022/04/03 07:37:38;;;;;;;0.30;0.30;;;15.60;51.60;;;14.55;nan;101193.41;4956599;28;20653;-66
2022/04/03 07:40:08;;;;;;;0.30;0.20;;;15.70;49.60;;;14.44;nan;101189.00;4971377;28;20836;-65
2022/04/03 07:42:39;;;;;;;0.30;0.30;;;15.80;49.30;;;14.69;nan;101178.19;4957857;28;20670;-65
2022/04/03 07:45:07;;;;;;;0.30;0.30;;;16.00;49.10;;;13.64;nan;101197.91;4968850;28;20639;-65
2022/04/03 07:47:34;;;;;;;0.30;0.20;;;15.30;49.10;;;13.65;nan;101189.06;4954781;28;20672;-64
2022/04/03 07:50:04;;;;;;;0.30;0.30;;;15.10;49.40;;;13.33;nan;101195.88;4969077;28;21429;-66
2022/04/03 07:52:32;;;;;;;0.30;0.20;;;14.50;50.50;;;13.06;nan;101205.78;4970819;28;20638;-65
2022/04/03 07:54:59;;;;;;;0.30;0.20;;;14.20;50.60;;;13.20;nan;101203.81;4944864;28;20639;-66
2022/04/03 07:57:26;;;;;;;0.30;0.20;;;14.30;50.50;;;13.23;nan;101202.75;4956625;28;21238;-67
2022/04/03 07:59:54;;;;;;;0.30;0.30;;;13.90;50.40;;;12.89;nan;101206.13;4978217;28;20639;-66
2022/04/03 08:02:21;;;;;;;0.30;0.30;;;13.80;51.00;;;13.52;nan;101209.28;4944539;29;20672;-66
2022/04/03 08:04:48;;;;;;;0.30;0.20;;;14.20;51.30;;;13.80;nan;101215.91;4968899;28;20639;-67
2022/04/03 08:07:15;;;;;;;1.17;1.07;;;14.50;51.00;;;14.18;nan;101202.47;4976092;28;20654;-66
2022/04/03 08:09:42;;;;;;;0.30;0.20;;;14.80;50.20;;;14.01;nan;101206.41;4972871;28;20635;-67
2022/04/03 08:12:09;;;;;;;0.30;0.30;;;14.70;49.70;;;14.08;nan;101207.59;4973176;28;20639;-66
2022/04/03 08:14:36;;;;;;;0.30;0.30;;;14.90;49.40;;;14.60;nan;101193.88;4955291;28;20611;-66
2022/04/03 08:17:03;;;;;;;0.30;0.30;;;15.70;48.60;;;16.19;nan;101210.31;4955022;28;20672;-67
2022/04/03 08:19:31;;;;;;;0.30;0.30;;;16.70;47.60;;;15.61;nan;101203.91;4938751;28;20642;-68
2022/04/03 08:21:58;;;;;;;0.30;0.30;;;16.80;45.90;;;14.38;nan;101217.53;4981320;28;20666;-67
2022/04/03 08:24:25;;;;;;;0.30;0.30;;;16.00;45.90;;;14.10;nan;101215.38;4980786;28;20997;-67
2022/04/03 08:26:52;;;;;;;0.30;0.30;;;15.10;47.50;;;12.85;nan;101208.16;4973689;28;20643;-66
2022/04/03 08:29:19;;;;;;;0.30;0.30;;;13.80;49.60;;;11.98;nan;101220.47;4972685;28;20639;-66
2022/04/03 08:31:46;;;;;;;0.30;0.30;;;13.00;50.70;;;11.76;nan;101215.03;4983092;28;20631;-66
2022/04/03 08:34:13;;;;;;;0.30;0.20;;;12.60;51.70;;;11.79;nan;101222.66;4978149;28;20643;-65
2022/04/03 08:37:01;;;;;;;0.30;0.30;;;12.40;52.90;;;12.20;nan;101220.66;4973069;28;20643;-65
2022/04/03 08:39:28;;;;;;;0.30;0.30;;;12.90;53.30;;;12.79;nan;101234.78;4955726;28;20619;-64
2022/04/03 08:41:59;;;;;;;0.30;0.20;;;13.50;52.10;;;11.15;nan;101220.84;4971795;28;20667;-66
2022/04/03 08:44:26;;;;;;;0.30;0.20;;;13.10;50.60;;;11.41;nan;101219.13;4956384;28;20634;-65
2022/04/03 08:46:53;;;;;;;0.30;0.20;;;12.20;53.30;;;10.36;nan;101227.66;4980014;28;20662;-66
2022/04/03 08:49:21;;;;;;;0.40;0.40;;;11.50;54.50;;;10.23;nan;101233.69;4953105;28;20633;-66
2022/04/03 08:51:50;;;;;;;0.30;0.20;;;11.30;55.70;;;10.56;nan;101234.25;4966886;28;20654;-65
2022/04/03 08:54:19;;;;;;;0.30;0.20;;;11.60;54.80;;;11.25;nan;101236.72;4932558;28;21256;-66
2022/04/03 08:56:46;;;;;;;0.30;0.20;;;12.00;54.90;;;11.56;nan;101239.84;4937558;28;20663;-66
2022/04/03 08:59:13;;;;;;;0.30;0.20;;;12.20;54.70;;;11.00;nan;101234.03;4940389;28;20646;-65
2022/04/03 09:01:40;;;;;;;0.30;0.30;;;12.00;54.90;;;11.35;nan;101237.84;4954481;28;20700;-67
2022/04/03 09:04:08;;;;;;;0.30;0.20;;;12.00;55.20;;;12.03;nan;101236.69;4945652;29;21310;-66
2022/04/03 09:06:56;;;;;;;0.30;0.30;;;13.20;53.10;;;13.57;nan;101248.28;4969338;28;20627;-67
2022/04/03 09:09:26;;;;;;;0.30;0.30;;;15.10;50.00;;;16.46;nan;101236.88;4954975;28;21197;-66
2022/04/03 09:12:08;;;;;;;0.30;0.30;;;19.10;45.40;;;17.16;nan;101244.72;4973160;28;20619;-65
2022/04/03 09:14:35;;;;;;;0.30;0.30;;;21.20;41.70;;;18.28;nan;101240.41;4954051;29;20624;-69
2022/04/03 09:17:02;;;;;;;0.30;0.30;;;22.60;39.40;;;21.14;nan;101246.66;4956615;28;20678;-71
2022/04/03 09:19:34;;;;;;;0.30;0.30;;;24.70;37.40;;;21.97;nan;101242.03;4923804;29;21046;-71
2022/04/03 09:22:01;;;;;;;0.30;0.30;;;26.20;35.00;;;22.98;nan;101247.28;4957776;28;20690;-71
2022/04/03 09:24:29;;;;;;;0.30;0.30;;;26.70;34.10;;;21.88;nan;101237.72;4965700;28;20626;-71
2022/04/03 09:27:01;;;;;;;3.13;1.37;;;26.90;32.50;;;22.92;nan;101224.03;4971878;28;20658;-72
2022/04/03 09:29:29;;;;;;;0.30;0.30;;;27.20;32.10;;;22.24;nan;101228.31;4979284;28;20630;-72
2022/04/03 09:32:01;;;;;;;0.37;0.37;;;26.60;31.70;;;23.09;nan;101233.59;4954013;28;21190;-72
2022/04/03 09:34:29;;;;;;;0.40;0.40;;;26.70;32.10;;;21.85;nan;101244.19;4959254;28;20698;-71
2022/04/03 09:37:00;;;;;;;0.30;0.30;;;25.60;32.10;;;21.39;nan;101235.06;4975021;28;20651;-71
2022/04/03 09:39:30;;;;;;;0.30;0.30;;;24.60;32.60;;;20.48;nan;101225.41;4972752;28;20998;-69
2022/04/03 09:42:04;;;;;;;0.50;0.50;;;22.90;33.70;;;16.73;nan;101220.50;4953650;28;20671;-70
2022/04/03 09:44:43;;;;;;;0.30;0.30;;;19.60;36.50;;;14.81;nan;101222.84;4970408;28;20628;-71
2022/04/03 09:47:19;;;;;;;0.30;0.30;;;16.90;39.30;;;12.72;nan;101202.13;4971730;28;20658;-70
2022/04/03 09:49:59;;;;;;;0.30;0.30;;;14.90;40.90;;;11.72;nan;101217.94;4971740;28;20698;-71
2022/04/03 09:52:51;;;;;;;0.30;0.30;;;13.30;43.10;;;12.94;nan;101222.38;4952175;28;20647;-68
2022/04/03 09:55:22;;;;;;;0.30;0.30;;;13.40;44.50;;;14.14;nan;101225.47;4953784;28;20634;-70
2022/04/03 09:58:04;;;;;;;0.30;0.30;;;16.10;41.20;;;16.18;nan;101216.56;4952806;28;20797;-71
2022/04/03 10:00:44;;;;;;;0.30;0.30;;;19.90;37.00;;;15.07;nan;101222.44;4955120;28;20705;-71
2022/04/03 10:03:13;;;;;;;0.30;0.30;;;18.60;35.90;;;13.56;nan;101239.59;4938657;28;20668;-71
2022/04/03 10:05:42;;;;;;;0.30;0.30;;;16.90;37.50;;;14.10;nan;101237.19;4935957;28;20633;-70
2022/04/03 10:08:10;;;;;;;0.30;0.20;;;16.30;38.10;;;13.19;nan;101235.38;4961478;28;21062;-68
2022/04/03 10:10:38;;;;;;;1.07;1.03;;;15.50;39.40;;;13.66;nan;101224.00;4922446;28;20621;-67
2022/04/03 10:13:06;;;;;;;0.30;0.30;;;15.20;39.50;;;12.50;nan;101216.84;4942535;28;20646;-68
2022/04/03 10:15:34;;;;;;;0.30;0.30;;;15.10;39.40;;;13.10;nan;101222.94;4947591;28;20636;-67
2022/04/03 10:18:05;;;;;;;0.30;0.30;;;14.50;40.30;;;12.25;nan;101215.09;4963543;28;21266;-68
2022/04/03 10:20:35;;;;;;;0.30;0.30;;;14.10;41.20;;;12.63;nan;101209.81;4952226;28;20631;-68
2022/04/03 10:23:10;;;;;;;0.30;0.20;;;14.10;40.90;;;13.11;nan;101214.16;4963106;28;20675;-68
2022/04/03 10:25:47;;;;;;;0.93;0.93;;;14.50;40.20;;;12.85;nan;101212.56;4955617;28;20622;-68
2022/04/03 10:28:20;;;;;;;0.30;0.20;;;14.20;40.10;;;12.46;nan;101206.59;4957376;28;20661;-67
2022/04/03 10:30:59;;;;;;;0.30;0.23;;;14.30;40.60;;;11.38;nan;101198.41;4958334;28;20619;-67
2022/04/03 10:33:37;;;;;;;0.30;0.30;;;13.10;39.80;;;10.62;nan;101195.56;4955539;28;21255;-66
2022/04/03 10:36:08;;;;;;;0.30;0.20;;;11.90;41.70;;;9.76;nan;101203.47;4974795;28;20634;-66
2022/04/03 10:39:06;;;;;;;0.30;0.20;;;11.00;42.10;;;9.69;nan;101211.75;4941733;28;20666;-67
2022/04/03 10:41:37;;;;;;;0.50;0.50;;;10.40;44.30;;;9.29;nan;101219.28;4935133;29;20683;-66